Terminal Aerodrome Forecast
Issued by NWS

Home | Current Version | Previous Version | Text Only | Print | Product List | Glossary On
Versions: 1 2 3 4 5 6 7 8 9 10 11 12 13 14 15 16 17 18 19
000
FTUS42 KILM 290000 CCA
TAFCRE
TAF COR
KCRE 290000Z 2900/2924 22008KT P6SM SCT050 BKN090
     FM290500 27004KT P6SM SCT045 BKN120
     FM291100 36007KT P6SM SCT050
     FM291700 05010KT P6SM SCT250=

USA.gov is the U.S. government's official web portal to all federal, state and local government web resources and services.